sensor_id;sensor_type;location;lat;lon;timestamp;P1;durP1;ratioP1;P2;durP2;ratioP2
71637;SDS011;59485;43.542;-5.676;2023-05-14T00:01:30;7.30;;;2.10;;
71637;SDS011;59485;43.542;-5.676;2023-05-14T00:03:55;4.82;;;2.35;;
71637;SDS011;59485;43.542;-5.676;2023-05-14T00:06:21;6.90;;;2.30;;
71637;SDS011;59485;43.542;-5.676;2023-05-14T00:08:46;6.37;;;2.67;;
71637;SDS011;59485;43.542;-5.676;2023-05-14T00:11:12;9.25;;;3.40;;
71637;SDS011;59485;43.542;-5.676;2023-05-14T00:13:37;12.10;;;3.73;;
71637;SDS011;59485;43.542;-5.676;2023-05-14T00:16:03;8.90;;;3.70;;
71637;SDS011;59485;43.542;-5.676;2023-05-14T00:18:29;10.27;;;3.10;;
71637;SDS011;59485;43.542;-5.676;2023-05-14T00:20:54;12.63;;;4.13;;
71637;SDS011;59485;43.542;-5.676;2023-05-14T00:23:20;9.10;;;3.23;;
71637;SDS011;59485;43.542;-5.676;2023-05-14T00:25:46;9.02;;;2.80;;
71637;SDS011;59485;43.542;-5.676;2023-05-14T00:28:12;5.78;;;3.05;;
71637;SDS011;59485;43.542;-5.676;2023-05-14T00:30:37;8.03;;;3.47;;
71637;SDS011;59485;43.542;-5.676;2023-05-14T00:33:04;11.65;;;4.72;;
71637;SDS011;59485;43.542;-5.676;2023-05-14T00:35:30;10.07;;;4.95;;
71637;SDS011;59485;43.542;-5.676;2023-05-14T00:37:55;12.60;;;5.30;;
71637;SDS011;59485;43.542;-5.676;2023-05-14T00:40:22;12.03;;;5.27;;
71637;SDS011;59485;43.542;-5.676;2023-05-14T00:42:50;7.85;;;3.30;;
71637;SDS011;59485;43.542;-5.676;2023-05-14T00:45:16;7.82;;;3.72;;
71637;SDS011;59485;43.542;-5.676;2023-05-14T00:47:42;9.73;;;3.33;;
71637;SDS011;59485;43.542;-5.676;2023-05-14T00:50:08;7.07;;;3.05;;
71637;SDS011;59485;43.542;-5.676;2023-05-14T00:52:35;9.85;;;3.05;;
71637;SDS011;59485;43.542;-5.676;2023-05-14T00:55:03;10.32;;;3.80;;
71637;SDS011;59485;43.542;-5.676;2023-05-14T00:57:30;7.97;;;3.40;;
71637;SDS011;59485;43.542;-5.676;2023-05-14T00:59:56;8.05;;;3.05;;
71637;SDS011;59485;43.542;-5.676;2023-05-14T01:02:22;9.05;;;4.53;;
71637;SDS011;59485;43.542;-5.676;2023-05-14T01:04:48;8.57;;;3.87;;
71637;SDS011;59485;43.542;-5.676;2023-05-14T01:15:38;10.65;;;4.07;;
71637;SDS011;59485;43.542;-5.676;2023-05-14T01:18:09;9.67;;;3.27;;
71637;SDS011;59485;43.542;-5.676;2023-05-14T01:20:36;9.20;;;3.65;;
71637;SDS011;59485;43.542;-5.676;2023-05-14T01:23:02;9.05;;;3.85;;
71637;SDS011;59485;43.542;-5.676;2023-05-14T01:25:28;7.37;;;3.77;;
71637;SDS011;59485;43.542;-5.676;2023-05-14T01:33:32;9.02;;;4.57;;
71637;SDS011;59485;43.542;-5.676;2023-05-14T01:35:59;7.27;;;3.30;;
71637;SDS011;59485;43.542;-5.676;2023-05-14T01:38:26;9.88;;;3.63;;
71637;SDS011;59485;43.542;-5.676;2023-05-14T01:40:55;11.20;;;4.63;;
71637;SDS011;59485;43.542;-5.676;2023-05-14T01:43:22;9.35;;;4.13;;
71637;SDS011;59485;43.542;-5.676;2023-05-14T01:45:48;12.93;;;5.75;;
71637;SDS011;59485;43.542;-5.676;2023-05-14T01:48:13;14.70;;;7.67;;
71637;SDS011;59485;43.542;-5.676;2023-05-14T01:50:39;17.03;;;7.53;;
71637;SDS011;59485;43.542;-5.676;2023-05-14T01:53:05;13.73;;;7.15;;
71637;SDS011;59485;43.542;-5.676;2023-05-14T01:55:31;12.07;;;7.05;;
71637;SDS011;59485;43.542;-5.676;2023-05-14T01:57:56;16.60;;;7.47;;
71637;SDS011;59485;43.542;-5.676;2023-05-14T02:00:22;14.17;;;7.63;;
71637;SDS011;59485;43.542;-5.676;2023-05-14T02:02:49;14.75;;;7.05;;
71637;SDS011;59485;43.542;-5.676;2023-05-14T02:05:15;14.83;;;7.30;;
71637;SDS011;59485;43.542;-5.676;2023-05-14T02:07:41;13.50;;;7.60;;
71637;SDS011;59485;43.542;-5.676;2023-05-14T02:10:07;12.70;;;7.18;;
71637;SDS011;59485;43.542;-5.676;2023-05-14T02:12:33;14.93;;;7.37;;
71637;SDS011;59485;43.542;-5.676;2023-05-14T02:14:58;12.18;;;7.03;;
71637;SDS011;59485;43.542;-5.676;2023-05-14T02:17:24;16.13;;;7.23;;
71637;SDS011;59485;43.542;-5.676;2023-05-14T02:19:50;14.98;;;7.38;;
71637;SDS011;59485;43.542;-5.676;2023-05-14T02:22:15;16.27;;;7.83;;
71637;SDS011;59485;43.542;-5.676;2023-05-14T02:24:41;15.40;;;9.27;;
71637;SDS011;59485;43.542;-5.676;2023-05-14T02:27:06;14.45;;;8.60;;
71637;SDS011;59485;43.542;-5.676;2023-05-14T02:29:32;19.07;;;8.83;;
71637;SDS011;59485;43.542;-5.676;2023-05-14T02:31:57;18.27;;;8.70;;
71637;SDS011;59485;43.542;-5.676;2023-05-14T02:34:23;17.27;;;8.70;;
71637;SDS011;59485;43.542;-5.676;2023-05-14T02:36:48;15.33;;;8.27;;
71637;SDS011;59485;43.542;-5.676;2023-05-14T02:39:14;18.53;;;9.47;;
71637;SDS011;59485;43.542;-5.676;2023-05-14T02:41:39;19.17;;;9.07;;
71637;SDS011;59485;43.542;-5.676;2023-05-14T02:44:05;16.80;;;8.60;;
71637;SDS011;59485;43.542;-5.676;2023-05-14T02:46:31;18.67;;;9.57;;
71637;SDS011;59485;43.542;-5.676;2023-05-14T02:48:56;14.45;;;8.57;;
71637;SDS011;59485;43.542;-5.676;2023-05-14T02:51:22;15.37;;;7.90;;
71637;SDS011;59485;43.542;-5.676;2023-05-14T02:53:48;13.43;;;7.28;;
71637;SDS011;59485;43.542;-5.676;2023-05-14T02:56:14;16.47;;;8.20;;
71637;SDS011;59485;43.542;-5.676;2023-05-14T02:58:39;12.70;;;7.88;;
71637;SDS011;59485;43.542;-5.676;2023-05-14T03:01:05;18.30;;;8.10;;
71637;SDS011;59485;43.542;-5.676;2023-05-14T03:03:30;16.02;;;7.95;;
71637;SDS011;59485;43.542;-5.676;2023-05-14T03:05:56;10.80;;;6.80;;
71637;SDS011;59485;43.542;-5.676;2023-05-14T03:08:22;15.97;;;6.77;;
71637;SDS011;59485;43.542;-5.676;2023-05-14T03:10:47;12.10;;;7.13;;
71637;SDS011;59485;43.542;-5.676;2023-05-14T03:13:13;11.27;;;5.67;;
71637;SDS011;59485;43.542;-5.676;2023-05-14T03:15:42;14.88;;;7.13;;
71637;SDS011;59485;43.542;-5.676;2023-05-14T03:18:08;15.68;;;8.43;;
71637;SDS011;59485;43.542;-5.676;2023-05-14T03:20:33;14.43;;;7.77;;
71637;SDS011;59485;43.542;-5.676;2023-05-14T03:22:59;13.27;;;7.70;;
71637;SDS011;59485;43.542;-5.676;2023-05-14T03:25:24;15.68;;;7.47;;
71637;SDS011;59485;43.542;-5.676;2023-05-14T03:27:50;12.50;;;7.50;;
71637;SDS011;59485;43.542;-5.676;2023-05-14T03:30:16;15.77;;;6.40;;
71637;SDS011;59485;43.542;-5.676;2023-05-14T03:32:41;12.07;;;6.10;;
71637;SDS011;59485;43.542;-5.676;2023-05-14T03:35:07;11.40;;;6.15;;
71637;SDS011;59485;43.542;-5.676;2023-05-14T03:37:33;11.40;;;5.95;;
71637;SDS011;59485;43.542;-5.676;2023-05-14T03:39:59;11.33;;;5.67;;
71637;SDS011;59485;43.542;-5.676;2023-05-14T03:42:24;15.33;;;6.03;;
71637;SDS011;59485;43.542;-5.676;2023-05-14T03:44:50;13.73;;;5.70;;
71637;SDS011;59485;43.542;-5.676;2023-05-14T03:47:15;17.07;;;6.53;;
71637;SDS011;59485;43.542;-5.676;2023-05-14T03:49:41;10.30;;;5.27;;
71637;SDS011;59485;43.542;-5.676;2023-05-14T03:52:06;12.32;;;5.80;;
71637;SDS011;59485;43.542;-5.676;2023-05-14T03:54:32;9.87;;;5.30;;
71637;SDS011;59485;43.542;-5.676;2023-05-14T03:56:57;13.83;;;6.23;;
71637;SDS011;59485;43.542;-5.676;2023-05-14T03:59:23;10.90;;;5.88;;
71637;SDS011;59485;43.542;-5.676;2023-05-14T04:01:48;13.30;;;6.60;;
71637;SDS011;59485;43.542;-5.676;2023-05-14T04:04:14;12.20;;;5.60;;
71637;SDS011;59485;43.542;-5.676;2023-05-14T04:06:40;11.13;;;6.10;;
71637;SDS011;59485;43.542;-5.676;2023-05-14T04:09:05;14.00;;;5.73;;
71637;SDS011;59485;43.542;-5.676;2023-05-14T04:11:31;11.45;;;5.50;;
71637;SDS011;59485;43.542;-5.676;2023-05-14T04:13:56;14.00;;;5.17;;
71637;SDS011;59485;43.542;-5.676;2023-05-14T04:16:22;9.53;;;4.93;;
71637;SDS011;59485;43.542;-5.676;2023-05-14T04:18:47;12.05;;;5.40;;
71637;SDS011;59485;43.542;-5.676;2023-05-14T04:21:13;11.53;;;5.40;;
71637;SDS011;59485;43.542;-5.676;2023-05-14T04:23:38;12.20;;;5.83;;
71637;SDS011;59485;43.542;-5.676;2023-05-14T04:26:04;16.13;;;6.23;;
71637;SDS011;59485;43.542;-5.676;2023-05-14T04:28:30;13.13;;;6.32;;
71637;SDS011;59485;43.542;-5.676;2023-05-14T04:30:55;13.80;;;5.77;;
71637;SDS011;59485;43.542;-5.676;2023-05-14T04:33:21;17.33;;;6.35;;
71637;SDS011;59485;43.542;-5.676;2023-05-14T04:35:47;15.00;;;6.20;;
71637;SDS011;59485;43.542;-5.676;2023-05-14T04:38:12;11.73;;;5.70;;
71637;SDS011;59485;43.542;-5.676;2023-05-14T04:40:38;15.02;;;6.20;;
71637;SDS011;59485;43.542;-5.676;2023-05-14T04:43:05;11.77;;;6.07;;
71637;SDS011;59485;43.542;-5.676;2023-05-14T04:45:31;10.47;;;6.50;;
71637;SDS011;59485;43.542;-5.676;2023-05-14T04:47:57;12.50;;;6.18;;
71637;SDS011;59485;43.542;-5.676;2023-05-14T04:50:23;12.23;;;5.70;;
71637;SDS011;59485;43.542;-5.676;2023-05-14T04:52:48;16.48;;;6.40;;
71637;SDS011;59485;43.542;-5.676;2023-05-14T04:55:14;11.83;;;5.90;;
71637;SDS011;59485;43.542;-5.676;2023-05-14T04:57:40;15.20;;;6.80;;
71637;SDS011;59485;43.542;-5.676;2023-05-14T05:00:05;14.47;;;6.27;;
71637;SDS011;59485;43.542;-5.676;2023-05-14T05:02:33;14.25;;;6.82;;
71637;SDS011;59485;43.542;-5.676;2023-05-14T05:04:59;14.53;;;6.73;;
71637;SDS011;59485;43.542;-5.676;2023-05-14T05:07:24;12.32;;;7.00;;
71637;SDS011;59485;43.542;-5.676;2023-05-14T05:09:50;12.47;;;5.83;;
71637;SDS011;59485;43.542;-5.676;2023-05-14T05:12:15;15.53;;;6.83;;
71637;SDS011;59485;43.542;-5.676;2023-05-14T05:14:41;14.27;;;6.20;;
71637;SDS011;59485;43.542;-5.676;2023-05-14T05:17:06;15.93;;;7.00;;
71637;SDS011;59485;43.542;-5.676;2023-05-14T05:19:32;15.33;;;7.57;;
71637;SDS011;59485;43.542;-5.676;2023-05-14T05:21:58;16.07;;;7.23;;
71637;SDS011;59485;43.542;-5.676;2023-05-14T05:24:23;12.87;;;6.60;;
71637;SDS011;59485;43.542;-5.676;2023-05-14T05:26:49;14.20;;;7.25;;
71637;SDS011;59485;43.542;-5.676;2023-05-14T05:29:15;15.30;;;7.13;;
71637;SDS011;59485;43.542;-5.676;2023-05-14T05:31:41;14.63;;;6.43;;
71637;SDS011;59485;43.542;-5.676;2023-05-14T05:34:07;11.10;;;5.90;;
71637;SDS011;59485;43.542;-5.676;2023-05-14T05:36:32;13.93;;;6.40;;
71637;SDS011;59485;43.542;-5.676;2023-05-14T05:38:58;14.07;;;6.60;;
71637;SDS011;59485;43.542;-5.676;2023-05-14T05:41:23;16.33;;;6.50;;
71637;SDS011;59485;43.542;-5.676;2023-05-14T05:43:50;15.00;;;7.33;;
71637;SDS011;59485;43.542;-5.676;2023-05-14T05:46:16;13.23;;;6.40;;
71637;SDS011;59485;43.542;-5.676;2023-05-14T05:48:43;14.67;;;7.00;;
71637;SDS011;59485;43.542;-5.676;2023-05-14T05:51:08;13.68;;;7.00;;
71637;SDS011;59485;43.542;-5.676;2023-05-14T05:53:34;15.43;;;7.57;;
71637;SDS011;59485;43.542;-5.676;2023-05-14T05:55:59;17.10;;;7.85;;
71637;SDS011;59485;43.542;-5.676;2023-05-14T05:58:25;17.03;;;7.80;;
71637;SDS011;59485;43.542;-5.676;2023-05-14T06:00:50;14.10;;;6.90;;
71637;SDS011;59485;43.542;-5.676;2023-05-14T06:03:17;14.77;;;6.50;;
71637;SDS011;59485;43.542;-5.676;2023-05-14T06:05:42;17.23;;;6.93;;
71637;SDS011;59485;43.542;-5.676;2023-05-14T06:08:08;13.55;;;7.18;;
71637;SDS011;59485;43.542;-5.676;2023-05-14T06:10:33;15.30;;;7.03;;
71637;SDS011;59485;43.542;-5.676;2023-05-14T06:13:00;13.52;;;6.72;;
71637;SDS011;59485;43.542;-5.676;2023-05-14T06:15:26;14.50;;;7.30;;
71637;SDS011;59485;43.542;-5.676;2023-05-14T06:17:51;13.55;;;7.00;;
71637;SDS011;59485;43.542;-5.676;2023-05-14T06:20:17;15.27;;;7.43;;
71637;SDS011;59485;43.542;-5.676;2023-05-14T06:22:43;16.67;;;7.00;;
71637;SDS011;59485;43.542;-5.676;2023-05-14T06:25:09;18.27;;;7.77;;
71637;SDS011;59485;43.542;-5.676;2023-05-14T06:27:34;13.75;;;6.72;;
71637;SDS011;59485;43.542;-5.676;2023-05-14T06:30:00;15.03;;;5.80;;
71637;SDS011;59485;43.542;-5.676;2023-05-14T06:32:26;10.88;;;5.72;;
71637;SDS011;59485;43.542;-5.676;2023-05-14T06:34:51;13.93;;;5.70;;
71637;SDS011;59485;43.542;-5.676;2023-05-14T06:37:17;13.30;;;5.87;;
71637;SDS011;59485;43.542;-5.676;2023-05-14T06:39:42;14.07;;;5.20;;
71637;SDS011;59485;43.542;-5.676;2023-05-14T06:42:13;13.70;;;5.70;;
71637;SDS011;59485;43.542;-5.676;2023-05-14T06:44:40;12.90;;;5.27;;
71637;SDS011;59485;43.542;-5.676;2023-05-14T06:47:05;13.05;;;5.65;;
71637;SDS011;59485;43.542;-5.676;2023-05-14T06:49:32;10.13;;;5.22;;
71637;SDS011;59485;43.542;-5.676;2023-05-14T06:51:59;9.83;;;4.67;;
71637;SDS011;59485;43.542;-5.676;2023-05-14T06:54:24;11.27;;;5.00;;
71637;SDS011;59485;43.542;-5.676;2023-05-14T06:56:50;9.53;;;4.43;;
71637;SDS011;59485;43.542;-5.676;2023-05-14T06:59:15;8.55;;;4.95;;
71637;SDS011;59485;43.542;-5.676;2023-05-14T07:01:44;9.37;;;4.73;;
71637;SDS011;59485;43.542;-5.676;2023-05-14T07:04:10;8.18;;;4.95;;
71637;SDS011;59485;43.542;-5.676;2023-05-14T07:06:35;12.83;;;4.80;;
71637;SDS011;59485;43.542;-5.676;2023-05-14T07:09:01;10.98;;;4.90;;
71637;SDS011;59485;43.542;-5.676;2023-05-14T07:11:36;7.65;;;4.43;;
71637;SDS011;59485;43.542;-5.676;2023-05-14T07:14:01;11.73;;;4.63;;
71637;SDS011;59485;43.542;-5.676;2023-05-14T07:16:27;10.10;;;4.60;;
71637;SDS011;59485;43.542;-5.676;2023-05-14T07:18:53;9.30;;;4.43;;
71637;SDS011;59485;43.542;-5.676;2023-05-14T07:21:18;8.77;;;4.93;;
71637;SDS011;59485;43.542;-5.676;2023-05-14T07:23:44;16.27;;;5.00;;
71637;SDS011;59485;43.542;-5.676;2023-05-14T07:26:09;9.87;;;4.30;;
71637;SDS011;59485;43.542;-5.676;2023-05-14T07:28:35;7.80;;;4.37;;
71637;SDS011;59485;43.542;-5.676;2023-05-14T07:31:02;8.70;;;4.78;;
71637;SDS011;59485;43.542;-5.676;2023-05-14T07:33:33;9.37;;;4.53;;
71637;SDS011;59485;43.542;-5.676;2023-05-14T07:36:00;11.20;;;5.13;;
71637;SDS011;59485;43.542;-5.676;2023-05-14T07:38:26;11.13;;;5.03;;
71637;SDS011;59485;43.542;-5.676;2023-05-14T07:40:51;9.93;;;4.53;;
71637;SDS011;59485;43.542;-5.676;2023-05-14T07:43:17;9.68;;;4.47;;
71637;SDS011;59485;43.542;-5.676;2023-05-14T07:45:42;10.97;;;5.23;;
71637;SDS011;59485;43.542;-5.676;2023-05-14T07:48:09;11.73;;;5.03;;
71637;SDS011;59485;43.542;-5.676;2023-05-14T07:50:35;10.20;;;5.00;;
71637;SDS011;59485;43.542;-5.676;2023-05-14T07:53:01;8.88;;;5.32;;
71637;SDS011;59485;43.542;-5.676;2023-05-14T07:55:27;14.87;;;5.13;;
71637;SDS011;59485;43.542;-5.676;2023-05-14T07:57:52;12.52;;;5.10;;
71637;SDS011;59485;43.542;-5.676;2023-05-14T08:00:18;13.37;;;5.07;;
71637;SDS011;59485;43.542;-5.676;2023-05-14T08:02:43;12.93;;;5.15;;
71637;SDS011;59485;43.542;-5.676;2023-05-14T08:05:09;11.87;;;4.37;;
71637;SDS011;59485;43.542;-5.676;2023-05-14T08:07:35;9.87;;;4.77;;
71637;SDS011;59485;43.542;-5.676;2023-05-14T08:10:00;10.65;;;4.82;;
71637;SDS011;59485;43.542;-5.676;2023-05-14T08:12:26;11.90;;;5.07;;
71637;SDS011;59485;43.542;-5.676;2023-05-14T08:14:52;9.93;;;5.47;;
71637;SDS011;59485;43.542;-5.676;2023-05-14T08:17:18;17.23;;;5.73;;
71637;SDS011;59485;43.542;-5.676;2023-05-14T08:19:43;10.70;;;4.83;;
71637;SDS011;59485;43.542;-5.676;2023-05-14T08:22:09;9.57;;;5.07;;
71637;SDS011;59485;43.542;-5.676;2023-05-14T08:24:35;13.80;;;5.87;;
71637;SDS011;59485;43.542;-5.676;2023-05-14T08:27:00;12.90;;;5.00;;
71637;SDS011;59485;43.542;-5.676;2023-05-14T08:29:26;13.87;;;5.10;;
71637;SDS011;59485;43.542;-5.676;2023-05-14T08:31:52;14.63;;;5.45;;
71637;SDS011;59485;43.542;-5.676;2023-05-14T08:34:17;13.97;;;6.00;;
71637;SDS011;59485;43.542;-5.676;2023-05-14T08:36:43;11.40;;;5.35;;
71637;SDS011;59485;43.542;-5.676;2023-05-14T08:39:08;11.57;;;5.80;;
71637;SDS011;59485;43.542;-5.676;2023-05-14T08:41:34;12.53;;;5.00;;
71637;SDS011;59485;43.542;-5.676;2023-05-14T08:46:39;13.98;;;5.95;;
71637;SDS011;59485;43.542;-5.676;2023-05-14T08:49:14;11.77;;;5.57;;
71637;SDS011;59485;43.542;-5.676;2023-05-14T08:51:49;13.00;;;5.40;;
71637;SDS011;59485;43.542;-5.676;2023-05-14T08:54:15;11.32;;;5.38;;
71637;SDS011;59485;43.542;-5.676;2023-05-14T08:56:42;14.00;;;6.30;;
71637;SDS011;59485;43.542;-5.676;2023-05-14T08:59:10;11.57;;;5.80;;
71637;SDS011;59485;43.542;-5.676;2023-05-14T09:01:36;13.95;;;5.40;;
71637;SDS011;59485;43.542;-5.676;2023-05-14T09:04:03;13.40;;;6.63;;
71637;SDS011;59485;43.542;-5.676;2023-05-14T09:06:33;15.88;;;6.05;;
71637;SDS011;59485;43.542;-5.676;2023-05-14T09:09:01;16.38;;;6.75;;
71637;SDS011;59485;43.542;-5.676;2023-05-14T09:11:27;9.83;;;5.57;;
71637;SDS011;59485;43.542;-5.676;2023-05-14T09:13:53;13.70;;;6.20;;
71637;SDS011;59485;43.542;-5.676;2023-05-14T09:16:18;10.80;;;5.80;;
71637;SDS011;59485;43.542;-5.676;2023-05-14T09:18:45;10.85;;;6.13;;
71637;SDS011;59485;43.542;-5.676;2023-05-14T09:21:14;10.52;;;6.43;;
71637;SDS011;59485;43.542;-5.676;2023-05-14T09:23:40;12.47;;;5.33;;
71637;SDS011;59485;43.542;-5.676;2023-05-14T09:26:08;11.10;;;5.03;;
71637;SDS011;59485;43.542;-5.676;2023-05-14T09:28:34;9.27;;;5.50;;
71637;SDS011;59485;43.542;-5.676;2023-05-14T09:31:00;11.57;;;5.30;;
71637;SDS011;59485;43.542;-5.676;2023-05-14T09:33:27;12.43;;;5.85;;
71637;SDS011;59485;43.542;-5.676;2023-05-14T09:36:00;11.82;;;5.15;;
71637;SDS011;59485;43.542;-5.676;2023-05-14T09:38:29;15.97;;;4.80;;
71637;SDS011;59485;43.542;-5.676;2023-05-14T09:40:56;13.63;;;5.82;;
71637;SDS011;59485;43.542;-5.676;2023-05-14T09:43:22;12.65;;;6.03;;
71637;SDS011;59485;43.542;-5.676;2023-05-14T09:45:48;12.00;;;5.10;;
71637;SDS011;59485;43.542;-5.676;2023-05-14T09:48:13;13.18;;;4.80;;
71637;SDS011;59485;43.542;-5.676;2023-05-14T09:50:42;12.80;;;5.00;;
71637;SDS011;59485;43.542;-5.676;2023-05-14T09:53:09;10.48;;;6.18;;
71637;SDS011;59485;43.542;-5.676;2023-05-14T09:55:35;17.48;;;5.18;;
71637;SDS011;59485;43.542;-5.676;2023-05-14T09:58:01;10.13;;;5.40;;
71637;SDS011;59485;43.542;-5.676;2023-05-14T10:00:28;11.20;;;4.78;;
71637;SDS011;59485;43.542;-5.676;2023-05-14T10:02:55;12.60;;;4.27;;
71637;SDS011;59485;43.542;-5.676;2023-05-14T10:05:25;14.35;;;4.68;;
71637;SDS011;59485;43.542;-5.676;2023-05-14T10:07:52;13.05;;;6.22;;
71637;SDS011;59485;43.542;-5.676;2023-05-14T10:10:21;10.35;;;4.53;;
71637;SDS011;59485;43.542;-5.676;2023-05-14T10:12:52;9.25;;;4.82;;
71637;SDS011;59485;43.542;-5.676;2023-05-14T10:15:55;11.47;;;4.87;;
71637;SDS011;59485;43.542;-5.676;2023-05-14T10:18:22;11.85;;;5.15;;
71637;SDS011;59485;43.542;-5.676;2023-05-14T10:20:59;10.07;;;5.68;;
71637;SDS011;59485;43.542;-5.676;2023-05-14T10:23:29;10.20;;;5.43;;
71637;SDS011;59485;43.542;-5.676;2023-05-14T10:25:54;9.97;;;5.73;;
71637;SDS011;59485;43.542;-5.676;2023-05-14T10:28:21;14.98;;;5.70;;
71637;SDS011;59485;43.542;-5.676;2023-05-14T10:30:48;14.68;;;5.70;;
71637;SDS011;59485;43.542;-5.676;2023-05-14T10:33:14;12.13;;;5.80;;
71637;SDS011;59485;43.542;-5.676;2023-05-14T10:38:32;12.35;;;5.70;;
71637;SDS011;59485;43.542;-5.676;2023-05-14T10:41:05;13.68;;;6.00;;
71637;SDS011;59485;43.542;-5.676;2023-05-14T10:43:42;10.20;;;5.35;;
71637;SDS011;59485;43.542;-5.676;2023-05-14T10:46:09;16.97;;;5.87;;
71637;SDS011;59485;43.542;-5.676;2023-05-14T10:48:38;10.63;;;5.90;;
71637;SDS011;59485;43.542;-5.676;2023-05-14T10:51:09;10.13;;;5.18;;
71637;SDS011;59485;43.542;-5.676;2023-05-14T10:53:36;14.10;;;5.40;;
71637;SDS011;59485;43.542;-5.676;2023-05-14T10:56:07;12.02;;;5.88;;
71637;SDS011;59485;43.542;-5.676;2023-05-14T10:58:35;12.03;;;5.20;;
71637;SDS011;59485;43.542;-5.676;2023-05-14T11:01:05;11.80;;;5.38;;
71637;SDS011;59485;43.542;-5.676;2023-05-14T11:03:37;11.25;;;5.13;;
71637;SDS011;59485;43.542;-5.676;2023-05-14T11:06:07;10.00;;;5.30;;
71637;SDS011;59485;43.542;-5.676;2023-05-14T11:08:34;13.07;;;5.50;;
71637;SDS011;59485;43.542;-5.676;2023-05-14T11:11:01;14.17;;;5.33;;
71637;SDS011;59485;43.542;-5.676;2023-05-14T11:13:26;14.10;;;5.70;;
71637;SDS011;59485;43.542;-5.676;2023-05-14T11:15:52;10.13;;;5.00;;
71637;SDS011;59485;43.542;-5.676;2023-05-14T11:18:27;12.38;;;5.72;;
71637;SDS011;59485;43.542;-5.676;2023-05-14T11:21:01;8.43;;;5.10;;
71637;SDS011;59485;43.542;-5.676;2023-05-14T11:23:27;11.88;;;5.63;;
71637;SDS011;59485;43.542;-5.676;2023-05-14T11:25:53;11.77;;;5.23;;
71637;SDS011;59485;43.542;-5.676;2023-05-14T11:28:20;12.07;;;5.18;;
71637;SDS011;59485;43.542;-5.676;2023-05-14T11:30:50;12.88;;;5.10;;
71637;SDS011;59485;43.542;-5.676;2023-05-14T11:33:17;15.18;;;6.03;;
71637;SDS011;59485;43.542;-5.676;2023-05-14T11:35:44;12.25;;;5.15;;
71637;SDS011;59485;43.542;-5.676;2023-05-14T11:38:17;13.53;;;5.13;;
71637;SDS011;59485;43.542;-5.676;2023-05-14T11:40:56;13.20;;;5.47;;
71637;SDS011;59485;43.542;-5.676;2023-05-14T11:43:23;11.13;;;5.18;;
71637;SDS011;59485;43.542;-5.676;2023-05-14T11:45:52;14.50;;;6.50;;
71637;SDS011;59485;43.542;-5.676;2023-05-14T11:48:19;9.75;;;4.88;;
71637;SDS011;59485;43.542;-5.676;2023-05-14T11:50:48;12.00;;;5.83;;
71637;SDS011;59485;43.542;-5.676;2023-05-14T11:53:16;10.30;;;5.50;;
71637;SDS011;59485;43.542;-5.676;2023-05-14T11:55:43;12.88;;;5.80;;
71637;SDS011;59485;43.542;-5.676;2023-05-14T11:58:10;10.32;;;5.47;;
71637;SDS011;59485;43.542;-5.676;2023-05-14T12:00:36;11.10;;;5.40;;
71637;SDS011;59485;43.542;-5.676;2023-05-14T12:03:02;12.03;;;4.93;;
71637;SDS011;59485;43.542;-5.676;2023-05-14T12:05:28;9.43;;;4.70;;
71637;SDS011;59485;43.542;-5.676;2023-05-14T12:07:53;14.53;;;5.87;;
71637;SDS011;59485;43.542;-5.676;2023-05-14T12:10:20;10.90;;;5.00;;
71637;SDS011;59485;43.542;-5.676;2023-05-14T12:12:46;11.63;;;6.03;;
71637;SDS011;59485;43.542;-5.676;2023-05-14T12:15:12;10.13;;;4.97;;
71637;SDS011;59485;43.542;-5.676;2023-05-14T12:17:39;11.38;;;6.05;;
71637;SDS011;59485;43.542;-5.676;2023-05-14T12:20:07;12.63;;;5.63;;
71637;SDS011;59485;43.542;-5.676;2023-05-14T12:22:37;11.57;;;5.97;;
71637;SDS011;59485;43.542;-5.676;2023-05-14T12:25:02;11.97;;;5.80;;
71637;SDS011;59485;43.542;-5.676;2023-05-14T12:27:28;9.00;;;5.45;;
71637;SDS011;59485;43.542;-5.676;2023-05-14T12:30:04;12.10;;;5.55;;
71637;SDS011;59485;43.542;-5.676;2023-05-14T12:32:34;16.67;;;5.47;;
71637;SDS011;59485;43.542;-5.676;2023-05-14T12:35:01;11.48;;;5.05;;
71637;SDS011;59485;43.542;-5.676;2023-05-14T12:37:27;13.10;;;5.80;;
71637;SDS011;59485;43.542;-5.676;2023-05-14T12:39:53;11.40;;;5.67;;
71637;SDS011;59485;43.542;-5.676;2023-05-14T12:42:19;10.65;;;5.28;;
71637;SDS011;59485;43.542;-5.676;2023-05-14T12:44:44;10.10;;;5.15;;
71637;SDS011;59485;43.542;-5.676;2023-05-14T12:47:10;12.37;;;5.20;;
71637;SDS011;59485;43.542;-5.676;2023-05-14T12:49:36;10.93;;;5.40;;
71637;SDS011;59485;43.542;-5.676;2023-05-14T12:52:01;10.88;;;5.43;;
71637;SDS011;59485;43.542;-5.676;2023-05-14T12:54:29;12.70;;;6.30;;
71637;SDS011;59485;43.542;-5.676;2023-05-14T12:56:56;11.75;;;5.97;;
71637;SDS011;59485;43.542;-5.676;2023-05-14T12:59:22;10.07;;;5.55;;
71637;SDS011;59485;43.542;-5.676;2023-05-14T13:01:47;8.57;;;5.07;;
71637;SDS011;59485;43.542;-5.676;2023-05-14T13:04:13;9.52;;;5.43;;
71637;SDS011;59485;43.542;-5.676;2023-05-14T13:06:39;9.20;;;5.70;;
71637;SDS011;59485;43.542;-5.676;2023-05-14T13:09:05;11.50;;;5.72;;
71637;SDS011;59485;43.542;-5.676;2023-05-14T13:11:31;12.77;;;5.05;;
71637;SDS011;59485;43.542;-5.676;2023-05-14T13:13:57;10.73;;;5.45;;
71637;SDS011;59485;43.542;-5.676;2023-05-14T13:16:27;10.77;;;5.30;;
71637;SDS011;59485;43.542;-5.676;2023-05-14T13:18:53;9.90;;;5.53;;
71637;SDS011;59485;43.542;-5.676;2023-05-14T13:21:18;10.55;;;5.82;;
71637;SDS011;59485;43.542;-5.676;2023-05-14T13:23:44;12.13;;;5.20;;
71637;SDS011;59485;43.542;-5.676;2023-05-14T13:26:10;11.48;;;5.57;;
71637;SDS011;59485;43.542;-5.676;2023-05-14T13:28:36;11.57;;;5.07;;
71637;SDS011;59485;43.542;-5.676;2023-05-14T13:33:35;9.68;;;5.20;;
71637;SDS011;59485;43.542;-5.676;2023-05-14T13:36:02;11.83;;;5.13;;
71637;SDS011;59485;43.542;-5.676;2023-05-14T13:38:28;9.60;;;4.97;;
71637;SDS011;59485;43.542;-5.676;2023-05-14T13:40:54;12.88;;;5.40;;
71637;SDS011;59485;43.542;-5.676;2023-05-14T13:43:21;14.80;;;5.47;;
71637;SDS011;59485;43.542;-5.676;2023-05-14T13:45:48;12.23;;;5.57;;
71637;SDS011;59485;43.542;-5.676;2023-05-14T13:48:15;12.82;;;5.60;;
71637;SDS011;59485;43.542;-5.676;2023-05-14T13:50:40;10.67;;;5.07;;
71637;SDS011;59485;43.542;-5.676;2023-05-14T13:53:06;12.02;;;5.05;;
71637;SDS011;59485;43.542;-5.676;2023-05-14T13:55:31;10.63;;;4.80;;
71637;SDS011;59485;43.542;-5.676;2023-05-14T13:57:57;14.07;;;5.20;;
71637;SDS011;59485;43.542;-5.676;2023-05-14T14:00:23;11.52;;;5.50;;
71637;SDS011;59485;43.542;-5.676;2023-05-14T14:02:49;11.32;;;5.22;;
71637;SDS011;59485;43.542;-5.676;2023-05-14T14:05:14;10.63;;;5.07;;
71637;SDS011;59485;43.542;-5.676;2023-05-14T14:07:40;11.43;;;4.50;;
71637;SDS011;59485;43.542;-5.676;2023-05-14T14:10:06;9.70;;;5.35;;
71637;SDS011;59485;43.542;-5.676;2023-05-14T14:12:32;10.90;;;4.85;;
71637;SDS011;59485;43.542;-5.676;2023-05-14T14:14:57;11.63;;;4.50;;
71637;SDS011;59485;43.542;-5.676;2023-05-14T14:17:23;10.60;;;5.23;;
71637;SDS011;59485;43.542;-5.676;2023-05-14T14:19:48;11.50;;;5.10;;
71637;SDS011;59485;43.542;-5.676;2023-05-14T14:22:14;10.18;;;5.15;;
71637;SDS011;59485;43.542;-5.676;2023-05-14T14:24:41;13.13;;;4.28;;
71637;SDS011;59485;43.542;-5.676;2023-05-14T14:27:07;9.27;;;4.20;;
71637;SDS011;59485;43.542;-5.676;2023-05-14T14:29:33;11.13;;;5.25;;
71637;SDS011;59485;43.542;-5.676;2023-05-14T14:31:58;10.30;;;4.33;;
71637;SDS011;59485;43.542;-5.676;2023-05-14T14:34:24;12.97;;;5.13;;
71637;SDS011;59485;43.542;-5.676;2023-05-14T14:36:49;10.37;;;5.23;;
71637;SDS011;59485;43.542;-5.676;2023-05-14T14:39:15;11.95;;;5.20;;
71637;SDS011;59485;43.542;-5.676;2023-05-14T14:41:40;11.77;;;5.13;;